createdAt,value
2018-11-21T00:00:49.388Z,35.28
2018-11-21T00:03:31.229Z,37.83
2018-11-21T00:06:00.521Z,29.23
2018-11-21T00:08:49.084Z,32.93
2018-11-21T00:11:30.403Z,32.03
2018-11-21T00:14:11.764Z,32.35
2018-11-21T00:16:53.466Z,29.48
2018-11-21T00:19:34.631Z,40.98
2018-11-21T00:22:03.932Z,39.95
2018-11-21T00:24:52.505Z,32.33
2018-11-21T00:27:21.782Z,33.25
2018-11-21T00:29:51.082Z,36.40
2018-11-21T00:32:32.425Z,39.58
2018-11-21T00:35:14.273Z,32.83
2018-11-21T00:37:56.149Z,31.37
2018-11-21T00:40:37.481Z,27.60
2018-11-21T00:43:19.420Z,31.07
2018-11-21T00:46:01.234Z,29.07
2018-11-21T00:48:30.553Z,28.83
2018-11-21T00:50:59.803Z,40.03
2018-11-21T00:53:41.054Z,30.90
2018-11-21T00:56:10.328Z,27.22
2018-11-21T00:58:39.611Z,26.10
2018-11-21T01:01:21.472Z,27.40
2018-11-21T01:04:03.725Z,27.37
2018-11-21T01:06:46.106Z,33.23
2018-11-21T01:09:15.393Z,27.48
2018-11-21T01:12:03.962Z,34.45
2018-11-21T01:14:45.581Z,32.05
2018-11-21T01:17:27.347Z,31.37
2018-11-21T01:20:12.048Z,29.45
2018-11-21T01:22:53.587Z,25.43
2018-11-21T01:25:35.097Z,24.67
2018-11-21T01:28:16.587Z,29.63
2018-11-21T01:30:58.241Z,27.55
2018-11-21T01:33:39.452Z,32.50
2018-11-21T01:36:21.205Z,29.67
2018-11-21T01:39:02.735Z,32.40
2018-11-21T01:41:44.292Z,35.88
2018-11-21T01:44:25.611Z,36.25
2018-11-21T01:47:06.644Z,35.50
2018-11-21T01:49:48.362Z,29.60
2018-11-21T01:52:30.143Z,36.17
2018-11-21T01:55:11.170Z,32.93
2018-11-21T02:01:10.091Z,28.57
2018-11-21T02:03:58.658Z,29.23
2018-11-21T02:06:43.151Z,32.17
2018-11-21T02:09:24.213Z,33.65
2018-11-21T02:12:06.250Z,30.23
2018-11-21T02:20:14.287Z,32.85
2018-11-21T02:22:55.926Z,31.62
2018-11-21T02:25:37.221Z,34.40
2018-11-21T02:28:18.805Z,31.95
2018-11-21T02:31:00.910Z,32.63
2018-11-21T02:33:42.085Z,33.28
2018-11-21T02:36:23.485Z,32.10
2018-11-21T02:39:05.174Z,31.23
2018-11-21T02:42:05.953Z,31.10
2018-11-21T02:44:46.876Z,32.80
2018-11-21T02:47:28.376Z,32.93
2018-11-21T02:49:57.693Z,34.08
2018-11-21T02:52:46.293Z,29.70
2018-11-21T02:55:27.879Z,31.30
2018-11-21T02:58:09.410Z,34.23
2018-11-21T03:00:50.956Z,30.37
2018-11-21T03:03:32.577Z,29.35
2018-11-21T03:06:01.844Z,29.65
2018-11-21T03:08:50.436Z,31.37
2018-11-21T03:11:31.557Z,29.23
2018-11-21T03:14:13.022Z,30.48
2018-11-21T03:16:54.628Z,26.45
2018-11-21T03:19:36.484Z,29.35
2018-11-21T03:22:18.072Z,31.70
2018-11-21T03:24:59.606Z,32.45
2018-11-21T03:27:41.224Z,32.75
2018-11-21T03:30:22.886Z,29.52
2018-11-21T03:33:04.346Z,30.10
2018-11-21T03:35:45.646Z,32.17
2018-11-21T03:38:26.763Z,28.38
2018-11-21T03:41:08.128Z,30.90
2018-11-21T03:43:49.589Z,30.52
2018-11-21T03:46:18.889Z,34.00
2018-11-21T03:49:07.488Z,32.35
2018-11-21T03:51:49.078Z,33.88
2018-11-21T03:54:18.388Z,31.87
2018-11-21T03:57:06.961Z,30.75
2018-11-21T03:59:48.177Z,30.45
2018-11-21T04:02:29.767Z,29.50
2018-11-21T04:04:59.049Z,31.20
2018-11-21T04:07:47.634Z,25.97
2018-11-21T04:10:30.530Z,29.40
2018-11-21T04:12:59.796Z,28.52
2018-11-21T04:15:48.384Z,25.77
2018-11-21T04:18:17.652Z,26.25
2018-11-21T04:21:06.286Z,30.77
2018-11-21T04:23:47.275Z,29.67
2018-11-21T04:26:28.703Z,32.83
2018-11-21T04:28:57.951Z,27.30
2018-11-21T04:31:46.553Z,29.70
2018-11-21T04:34:28.400Z,28.52
2018-11-21T04:37:10.079Z,29.50
2018-11-21T04:39:51.945Z,31.97
2018-11-21T04:42:33.534Z,30.88
2018-11-21T04:45:02.823Z,28.07
2018-11-21T04:47:51.441Z,34.92
2018-11-21T04:50:33.106Z,32.67
2018-11-21T04:53:02.380Z,30.48
2018-11-21T04:55:31.777Z,33.83
2018-11-21T04:58:13.171Z,32.03
2018-11-21T05:00:54.629Z,29.55
2018-11-21T05:03:35.978Z,28.60
2018-11-21T05:06:17.561Z,31.10
2018-11-21T05:08:58.983Z,31.93
2018-11-21T05:11:28.315Z,29.48
2018-11-21T05:14:16.877Z,31.02
2018-11-21T05:16:58.741Z,28.50
2018-11-21T05:19:40.519Z,29.70
2018-11-21T05:22:09.808Z,33.80
2018-11-21T05:24:58.393Z,31.37
2018-11-21T05:27:39.788Z,34.53
2018-11-21T05:30:21.446Z,32.25
2018-11-21T05:33:06.227Z,32.33
2018-11-21T05:35:47.612Z,30.05
2018-11-21T05:38:29.363Z,33.75
2018-11-21T05:40:58.655Z,32.17
2018-11-21T05:43:47.264Z,25.85
2018-11-21T05:46:28.803Z,27.30
2018-11-21T05:49:10.018Z,26.17
2018-11-21T05:51:39.297Z,29.37
2018-11-21T05:54:27.921Z,29.85
2018-11-21T05:57:09.264Z,25.45
2018-11-21T05:59:50.343Z,25.68
2018-11-21T06:02:19.677Z,27.98
2018-11-21T06:05:08.706Z,26.65
2018-11-21T06:07:49.770Z,24.43
2018-11-21T06:10:31.221Z,24.67
2018-11-21T06:13:00.547Z,30.40
2018-11-21T06:15:29.809Z,29.27
2018-11-21T06:17:59.101Z,27.15
2018-11-21T06:20:47.697Z,26.00
2018-11-21T06:23:36.303Z,25.08
2018-11-21T06:26:17.489Z,25.60
2018-11-21T06:28:59.244Z,26.25
2018-11-21T06:31:40.936Z,24.90
2018-11-21T06:34:22.748Z,25.85
2018-11-21T06:37:04.042Z,23.62
2018-11-21T06:39:45.411Z,25.40
2018-11-21T06:42:26.621Z,24.65
2018-11-21T06:44:56.029Z,22.27
2018-11-21T06:47:44.592Z,23.47
2018-11-21T06:50:26.365Z,24.95
2018-11-21T06:53:07.609Z,22.90
2018-11-21T06:55:49.435Z,23.05
2018-11-21T06:58:18.695Z,26.87
2018-11-21T07:01:07.290Z,22.15
2018-11-21T07:03:48.698Z,26.00
2018-11-21T07:06:30.015Z,22.55
2018-11-21T07:08:59.331Z,24.18
2018-11-21T07:15:06.338Z,20.62
2018-11-21T07:17:35.641Z,21.73
2018-11-21T07:20:24.242Z,27.73
2018-11-21T07:23:05.625Z,22.32
2018-11-21T07:25:46.906Z,20.25
2018-11-21T07:28:28.263Z,22.02
2018-11-21T07:31:10.105Z,22.30
2018-11-21T07:33:51.826Z,22.20
2018-11-21T07:36:34.613Z,24.63
2018-11-21T07:39:16.044Z,23.05
2018-11-21T07:41:57.587Z,23.57
2018-11-21T07:44:38.745Z,21.42
2018-11-21T07:47:19.991Z,23.20
2018-11-21T07:50:01.815Z,22.20
2018-11-21T07:52:43.246Z,22.15
2018-11-21T07:55:24.477Z,20.65
2018-11-21T07:58:08.998Z,21.27
2018-11-21T08:01:21.160Z,25.92
2018-11-21T08:03:57.999Z,20.65
2018-11-21T08:06:42.560Z,21.33
2018-11-21T08:09:33.784Z,21.27
2018-11-21T08:12:20.382Z,21.30
2018-11-21T08:15:19.375Z,21.23
2018-11-21T08:18:08.763Z,18.90
2018-11-21T08:21:05.761Z,21.07
2018-11-21T08:23:55.694Z,20.72
2018-11-21T08:26:41.008Z,20.68
2018-11-21T08:29:10.440Z,20.57
2018-11-21T08:31:39.695Z,21.20
2018-11-21T08:34:08.981Z,19.50
2018-11-21T08:36:38.241Z,18.27
2018-11-21T08:39:09.271Z,19.48
2018-11-21T08:41:38.571Z,17.00
2018-11-21T08:44:08.013Z,21.00
2018-11-21T08:46:37.274Z,17.55
2018-11-21T08:49:06.578Z,17.57
2018-11-21T08:51:35.818Z,17.85
2018-11-21T08:54:05.355Z,18.60
2018-11-21T08:56:34.675Z,18.23
2018-11-21T08:59:03.961Z,17.48
2018-11-21T09:01:33.215Z,15.68
2018-11-21T09:04:02.472Z,17.77
2018-11-21T09:06:31.749Z,16.90
2018-11-21T09:09:00.991Z,17.30
2018-11-21T09:11:30.276Z,15.68
2018-11-21T09:13:59.903Z,16.85
2018-11-21T09:16:29.167Z,18.05
2018-11-21T09:18:58.435Z,18.20
2018-11-21T09:21:27.706Z,21.70
2018-11-21T09:23:56.981Z,17.92
2018-11-21T09:26:26.278Z,16.97
2018-11-21T09:28:55.617Z,18.55
2018-11-21T09:31:24.896Z,16.90
2018-11-21T09:33:54.149Z,16.20
2018-11-21T09:36:23.422Z,17.55
2018-11-21T09:38:52.726Z,19.20
2018-11-21T09:41:22.009Z,18.00
2018-11-21T09:43:51.300Z,18.67
2018-11-21T09:46:20.583Z,18.67
2018-11-21T09:48:49.840Z,17.52
2018-11-21T09:51:19.117Z,19.35
2018-11-21T09:53:48.372Z,17.80
2018-11-21T09:56:17.664Z,18.75
2018-11-21T09:58:46.932Z,18.65
2018-11-21T10:01:52.034Z,19.80
2018-11-21T10:04:21.316Z,19.32
2018-11-21T10:06:50.838Z,20.45
2018-11-21T10:09:25.106Z,20.12
2018-11-21T10:11:54.366Z,18.48
2018-11-21T10:14:23.620Z,20.12
2018-11-21T10:16:53.094Z,20.97
2018-11-21T10:19:22.389Z,21.02
2018-11-21T10:21:51.664Z,22.55
2018-11-21T10:24:20.924Z,20.43
2018-11-21T10:26:50.236Z,17.85
2018-11-21T10:29:19.496Z,17.65
2018-11-21T10:31:48.792Z,19.40
2018-11-21T10:34:18.048Z,18.65
2018-11-21T10:36:47.414Z,17.25
2018-11-21T10:39:16.705Z,18.92
2018-11-21T10:41:46.029Z,19.30
2018-11-21T10:44:15.343Z,18.57
2018-11-21T10:46:44.625Z,19.37
2018-11-21T10:49:13.890Z,18.50
2018-11-21T10:51:43.140Z,17.60
2018-11-21T10:54:12.438Z,18.80
2018-11-21T10:56:42.130Z,18.77
2018-11-21T10:59:11.395Z,74.30
2018-11-21T11:01:58.207Z,19.55
2018-11-21T11:04:34.141Z,18.67
2018-11-21T11:07:20.510Z,18.67
2018-11-21T11:10:07.154Z,19.57
2018-11-21T11:13:04.102Z,21.17
2018-11-21T11:15:51.106Z,19.10
2018-11-21T11:18:37.930Z,20.37
2018-11-21T11:21:24.755Z,20.45
2018-11-21T11:24:11.588Z,22.10
2018-11-21T11:26:58.443Z,20.52
2018-11-21T11:29:45.397Z,20.32
2018-11-21T11:32:28.494Z,20.20
2018-11-21T11:35:22.754Z,17.37
2018-11-21T11:38:09.634Z,20.27
2018-11-21T11:40:56.593Z,21.65
2018-11-21T11:43:43.585Z,18.77
2018-11-21T11:46:37.696Z,16.48
2018-11-21T11:49:24.269Z,21.05
2018-11-21T11:52:15.666Z,19.00
2018-11-21T11:55:12.611Z,16.17
2018-11-21T11:58:03.742Z,15.10
2018-11-21T12:00:53.658Z,19.52
2018-11-21T12:03:47.552Z,18.73
2018-11-21T12:06:50.729Z,17.67
2018-11-21T12:09:37.611Z,15.85
2018-11-21T12:12:24.310Z,16.62
2018-11-21T12:15:11.152Z,17.23
2018-11-21T12:17:57.754Z,18.10
2018-11-21T12:20:44.766Z,20.57
2018-11-21T12:23:35.966Z,18.30
2018-11-21T12:26:42.553Z,18.32
2018-11-21T12:29:34.729Z,16.12
2018-11-21T12:32:20.684Z,16.02
2018-11-21T12:35:07.250Z,16.27
2018-11-21T12:37:55.646Z,17.85
2018-11-21T12:40:42.207Z,16.48
2018-11-21T12:43:28.557Z,16.07
2018-11-21T12:46:35.132Z,15.85
2018-11-21T12:49:23.514Z,16.27
2018-11-21T12:52:23.666Z,16.10
2018-11-21T12:55:10.421Z,18.00
2018-11-21T12:57:58.850Z,17.87
2018-11-21T13:00:56.455Z,20.50
2018-11-21T13:03:53.597Z,17.70
2018-11-21T13:06:37.030Z,17.00
2018-11-21T13:09:27.004Z,14.35
2018-11-21T13:12:24.468Z,16.45
2018-11-21T13:15:11.383Z,17.57
2018-11-21T13:18:08.528Z,16.93
2018-11-21T13:20:55.580Z,18.85
2018-11-21T13:23:42.385Z,15.38
2018-11-21T13:26:29.158Z,15.38
2018-11-21T13:29:17.148Z,22.45
2018-11-21T13:31:57.237Z,18.05
2018-11-21T13:34:45.639Z,17.23
2018-11-21T13:37:43.292Z,20.02
2018-11-21T13:40:34.428Z,20.17
2018-11-21T13:43:21.098Z,20.25
2018-11-21T13:46:21.630Z,18.75
2018-11-21T13:49:09.488Z,17.60
2018-11-21T13:52:09.913Z,17.92
2018-11-21T13:54:56.486Z,15.93
2018-11-21T13:57:25.798Z,17.37
2018-11-21T13:59:55.262Z,18.80
2018-11-21T14:02:24.536Z,20.50
2018-11-21T14:04:53.838Z,19.05
2018-11-21T14:07:23.120Z,18.02
2018-11-21T14:09:52.403Z,16.17
2018-11-21T14:12:21.692Z,20.70
2018-11-21T14:14:50.966Z,22.50
2018-11-21T14:17:27.388Z,18.07
2018-11-21T14:19:49.558Z,19.30
2018-11-21T14:22:18.808Z,20.90
2018-11-21T14:24:48.108Z,29.82
2018-11-21T14:27:17.360Z,21.55
2018-11-21T14:29:46.758Z,20.75
2018-11-21T14:32:16.001Z,20.32
2018-11-21T14:34:45.275Z,21.85
2018-11-21T14:37:14.643Z,22.02
2018-11-21T14:39:43.927Z,20.97
2018-11-21T14:42:13.188Z,19.32
2018-11-21T14:44:42.514Z,21.68
2018-11-21T14:47:13.994Z,27.67
2018-11-21T14:49:44.586Z,22.70
2018-11-21T14:52:13.882Z,29.15
2018-11-21T14:54:43.145Z,25.45
2018-11-21T14:57:12.566Z,23.90
2018-11-21T14:59:41.846Z,25.40
2018-11-21T15:02:11.150Z,23.47
2018-11-21T15:04:40.409Z,24.80
2018-11-21T15:07:09.700Z,24.18
2018-11-21T15:09:38.960Z,32.98
2018-11-21T15:12:08.265Z,31.30
2018-11-21T15:14:37.530Z,24.98
2018-11-21T15:17:06.836Z,27.00
2018-11-21T15:19:36.097Z,25.68
2018-11-21T15:22:05.437Z,34.55
2018-11-21T15:24:34.692Z,26.07
2018-11-21T15:27:04.169Z,28.15
2018-11-21T15:29:33.451Z,26.30
2018-11-21T15:32:02.752Z,25.50
2018-11-21T15:34:32.018Z,23.40
2018-11-21T15:37:01.319Z,26.87
2018-11-21T15:39:30.630Z,26.20
2018-11-21T15:41:59.892Z,24.05
2018-11-21T15:44:29.222Z,33.67
2018-11-21T15:46:58.511Z,24.72
2018-11-21T15:49:27.799Z,27.93
2018-11-21T15:52:01.558Z,29.77
2018-11-21T15:54:26.353Z,24.95
2018-11-21T15:56:55.616Z,22.22
2018-11-21T15:59:24.889Z,20.23
2018-11-21T16:01:54.232Z,24.57
2018-11-21T16:04:23.519Z,22.48
2018-11-21T16:06:52.744Z,24.87
2018-11-21T16:09:22.017Z,27.30
2018-11-21T16:11:51.278Z,51.25
2018-11-21T16:14:20.553Z,50.52
2018-11-21T16:16:49.823Z,26.70
2018-11-21T16:19:19.109Z,28.25
2018-11-21T16:21:48.386Z,22.50
2018-11-21T16:24:18.042Z,16.95
2018-11-21T16:26:47.314Z,17.15
2018-11-21T16:29:16.588Z,16.80
2018-11-21T16:31:45.841Z,16.12
2018-11-21T16:34:15.119Z,20.25
2018-11-21T16:36:44.418Z,18.80
2018-11-21T16:39:14.233Z,17.50
2018-11-21T16:41:43.506Z,17.73
2018-11-21T16:44:12.870Z,18.40
2018-11-21T16:46:42.151Z,18.07
2018-11-21T16:49:11.492Z,18.62
2018-11-21T16:51:40.755Z,16.73
2018-11-21T16:54:10.057Z,16.23
2018-11-21T16:56:39.348Z,15.68
2018-11-21T16:59:08.653Z,17.40
2018-11-21T17:01:38.129Z,15.53
2018-11-21T17:04:07.446Z,15.70
2018-11-21T17:06:36.714Z,16.82
2018-11-21T17:09:08.960Z,17.45
2018-11-21T17:11:38.225Z,16.60
2018-11-21T17:14:07.638Z,16.95
2018-11-21T17:16:36.959Z,35.70
2018-11-21T17:19:06.246Z,27.42
2018-11-21T17:21:36.139Z,25.90
2018-11-21T17:24:06.116Z,25.70
2018-11-21T17:26:35.417Z,23.38
2018-11-21T17:29:08.621Z,19.75
2018-11-21T17:31:33.994Z,19.55
2018-11-21T17:34:03.272Z,22.25
2018-11-21T17:36:32.740Z,22.95
2018-11-21T17:39:02.017Z,23.98
2018-11-21T17:41:31.348Z,20.70
2018-11-21T17:44:00.643Z,22.85
2018-11-21T17:46:29.943Z,20.92
2018-11-21T17:48:59.206Z,22.82
2018-11-21T17:51:28.495Z,28.10
2018-11-21T17:53:57.755Z,25.00
2018-11-21T17:56:27.040Z,22.00
2018-11-21T17:58:56.308Z,19.52
2018-11-21T18:01:25.602Z,19.75
2018-11-21T18:03:54.863Z,19.60
2018-11-21T18:06:24.143Z,23.42
2018-11-21T18:08:53.410Z,22.85
2018-11-21T18:11:22.705Z,22.05
2018-11-21T18:13:51.976Z,22.70
2018-11-21T18:16:21.301Z,23.18
2018-11-21T18:18:51.498Z,19.17
2018-11-21T18:21:20.812Z,20.90
2018-11-21T18:23:50.065Z,24.67
2018-11-21T18:26:19.355Z,25.52
2018-11-21T18:28:48.633Z,25.97
2018-11-21T18:31:17.924Z,25.40
2018-11-21T18:33:47.189Z,22.37
2018-11-21T18:36:16.554Z,23.83
2018-11-21T18:38:45.836Z,21.97
2018-11-21T18:41:15.160Z,20.30
2018-11-21T18:43:44.460Z,22.07
2018-11-21T18:46:13.776Z,24.52
2018-11-21T18:48:43.013Z,23.40
2018-11-21T18:51:12.338Z,22.50
2018-11-21T18:53:41.596Z,24.52
2018-11-21T18:56:35.603Z,27.10
2018-11-21T18:59:50.346Z,23.98
2018-11-21T19:02:19.649Z,28.42
2018-11-21T19:04:49.779Z,28.50
2018-11-21T19:07:19.401Z,29.27
2018-11-21T19:09:48.716Z,30.85
2018-11-21T19:12:18.897Z,35.33
2018-11-21T19:14:48.167Z,27.60
2018-11-21T19:17:17.593Z,24.72
2018-11-21T19:19:46.987Z,23.70
2018-11-21T19:22:16.309Z,21.27
2018-11-21T19:24:45.576Z,27.07
2018-11-21T19:27:14.871Z,25.77
2018-11-21T19:29:44.255Z,24.37
2018-11-21T19:32:13.581Z,23.25
2018-11-21T19:34:42.829Z,21.25
2018-11-21T19:37:12.153Z,23.38
2018-11-21T19:39:41.453Z,38.23
2018-11-21T19:42:10.749Z,68.57
2018-11-21T19:44:40.086Z,52.15
2018-11-21T19:47:09.714Z,48.33
2018-11-21T19:49:39.018Z,36.13
2018-11-21T19:52:08.274Z,25.72
2018-11-21T19:54:37.966Z,26.52
2018-11-21T19:57:07.221Z,26.57
2018-11-21T19:59:36.555Z,26.48
2018-11-21T20:02:06.301Z,21.57
2018-11-21T20:04:35.583Z,21.52
2018-11-21T20:07:04.966Z,19.27
2018-11-21T20:09:34.296Z,20.02
2018-11-21T20:12:03.984Z,20.55
2018-11-21T20:14:33.373Z,21.20
2018-11-21T20:17:02.649Z,20.05
2018-11-21T20:19:31.947Z,17.92
2018-11-21T20:22:01.269Z,20.77
2018-11-21T20:24:30.573Z,21.90
2018-11-21T20:26:59.892Z,21.40
2018-11-21T20:29:29.189Z,21.15
2018-11-21T20:31:58.464Z,22.35
2018-11-21T20:34:27.756Z,20.82
2018-11-21T20:36:57.017Z,24.07
2018-11-21T20:39:26.335Z,22.42
2018-11-21T20:41:55.657Z,22.73
2018-11-21T20:44:24.941Z,21.05
2018-11-21T20:46:54.208Z,22.73
2018-11-21T20:49:23.487Z,20.50
2018-11-21T20:51:52.779Z,20.60
2018-11-21T20:54:22.058Z,21.35
2018-11-21T20:56:51.355Z,20.37
2018-11-21T20:59:20.654Z,22.93
2018-11-21T21:01:49.952Z,23.57
2018-11-21T21:04:19.246Z,22.65
2018-11-21T21:06:48.637Z,19.73
2018-11-21T21:09:17.946Z,22.05
2018-11-21T21:11:47.240Z,22.52
2018-11-21T21:14:16.518Z,22.20
2018-11-21T21:16:45.804Z,19.87
2018-11-21T21:19:15.058Z,20.62
2018-11-21T21:21:44.344Z,20.10
2018-11-21T21:24:13.632Z,20.17
2018-11-21T21:26:42.944Z,18.62
2018-11-21T21:29:12.236Z,20.60
2018-11-21T21:31:41.516Z,19.20
2018-11-21T21:34:10.774Z,22.75
2018-11-21T21:36:40.176Z,21.60
2018-11-21T21:39:10.914Z,21.07
2018-11-21T21:41:40.277Z,21.62
2018-11-21T21:44:09.554Z,19.77
2018-11-21T21:46:38.838Z,21.60
2018-11-21T21:49:08.089Z,20.17
2018-11-21T21:51:37.374Z,19.15
2018-11-21T21:54:06.606Z,19.45
2018-11-21T21:56:35.882Z,19.42
2018-11-21T21:59:05.359Z,20.57
2018-11-21T22:01:34.632Z,22.32
2018-11-21T22:04:04.023Z,24.32
2018-11-21T22:06:33.379Z,23.77
2018-11-21T22:09:02.621Z,20.77
2018-11-21T22:11:31.904Z,20.35
2018-11-21T22:14:01.191Z,22.37
2018-11-21T22:16:30.594Z,22.87
2018-11-21T22:18:59.847Z,23.57
2018-11-21T22:21:29.311Z,22.25
2018-11-21T22:23:59.016Z,22.98
2018-11-21T22:26:28.262Z,25.62
2018-11-21T22:28:57.546Z,23.18
2018-11-21T22:31:26.794Z,25.88
2018-11-21T22:33:56.097Z,24.75
2018-11-21T22:36:25.359Z,19.52
2018-11-21T22:38:54.651Z,21.62
2018-11-21T22:41:23.927Z,22.48
2018-11-21T22:43:53.220Z,23.98
2018-11-21T22:46:22.458Z,23.20
2018-11-21T22:48:51.793Z,27.05
2018-11-21T22:51:21.058Z,23.57
2018-11-21T22:53:50.337Z,21.40
2018-11-21T22:56:19.583Z,21.45
2018-11-21T22:58:48.884Z,20.25
2018-11-21T23:01:25.282Z,26.52
2018-11-21T23:03:54.651Z,23.32
2018-11-21T23:06:23.911Z,24.55
2018-11-21T23:08:53.215Z,22.05
2018-11-21T23:11:22.476Z,22.07
2018-11-21T23:13:51.774Z,23.50
2018-11-21T23:16:21.014Z,22.25
2018-11-21T23:18:50.304Z,21.05
2018-11-21T23:21:19.555Z,26.75
2018-11-21T23:23:48.831Z,25.60
2018-11-21T23:26:18.083Z,23.12
2018-11-21T23:28:47.366Z,20.75
2018-11-21T23:31:16.608Z,22.15
2018-11-21T23:33:45.892Z,24.25
2018-11-21T23:36:15.147Z,21.87
2018-11-21T23:38:44.426Z,21.35
2018-11-21T23:41:13.695Z,24.57
2018-11-21T23:43:42.974Z,23.00
2018-11-21T23:46:12.211Z,21.80
2018-11-21T23:48:41.484Z,20.27
2018-11-21T23:51:10.720Z,19.70
2018-11-21T23:53:40.022Z,23.10
2018-11-21T23:56:09.269Z,24.05
2018-11-21T23:58:38.539Z,24.20
